Terminal Aerodrome Forecast
Issued by NWS

Home | Current Version | Previous Version | Text Only | Print | Product List | Glossary On
Versions: 1 2 3 4 5 6 7 8 9 10 11 12 13 14 15 16 17 18 19 20 21 22 23 24 25 26 27 28 29 30 31 32
000
FTUS42 KTAE 131122
TAFVLD
TAF
KVLD 131122Z 1312/1412 05008KT 5SM -RA BR OVC003
     FM132100 11003KT P6SM OVC008
     FM140200 17005KT 5SM -TSRA BR OVC005CB
     FM140600 25005KT P6SM OVC003=

USA.gov is the U.S. government's official web portal to all federal, state and local government web resources and services.